Time;durP1;ratioP1;P1;durP2;ratioP2;P2;SDS_P1;SDS_P2;PMS_P1;PMS_P2;Temp;Humidity;BMP_temperature;BMP_pressure;BME280_temperature;BME280_humidity;BME280_pressure;Samples;Min_cycle;Max_cycle;Signal;HPM_P1;HPM_P2
2023/04/10 00:00:06;;;;;;;7.85;4.78;;;0.60;99.90;;;;;;2108096;28;20199;-62
2023/04/10 00:01:11;;;;;;;9.50;5.03;;;0.60;99.90;;;;;;2117513;28;20666;-62
2023/04/10 00:02:16;;;;;;;9.02;4.95;;;0.60;99.90;;;;;;2116752;28;20647;-62
2023/04/10 00:03:23;;;;;;;7.95;4.80;;;0.70;99.90;;;;;;2115433;28;20217;-62
2023/04/10 00:04:28;;;;;;;8.73;5.15;;;0.70;99.90;;;;;;2115480;28;20193;-61
2023/04/10 00:05:33;;;;;;;8.90;4.97;;;0.60;99.90;;;;;;2115063;28;20186;-60
2023/04/10 00:06:40;;;;;;;9.50;5.07;;;0.60;99.90;;;;;;2115128;28;20178;-62
2023/04/10 00:07:46;;;;;;;9.32;5.28;;;0.60;99.90;;;;;;2111678;28;20261;-61
2023/04/10 00:08:51;;;;;;;9.52;4.90;;;0.70;99.90;;;;;;2114976;28;20182;-61
2023/04/10 00:09:57;;;;;;;9.98;5.47;;;0.70;99.90;;;;;;2115311;28;20186;-62
2023/04/10 00:11:03;;;;;;;9.65;5.32;;;0.80;99.90;;;;;;2114872;28;20186;-62
2023/04/10 00:12:05;;;;;;;9.57;5.03;;;0.80;99.90;;;;;;2114549;28;20194;-61
2023/04/10 00:13:09;;;;;;;8.90;4.70;;;0.80;99.90;;;;;;2115031;28;20626;-62
2023/04/10 00:14:21;;;;;;;9.73;5.50;;;0.80;99.90;;;;;;2113102;28;20917;-61
2023/04/10 00:15:27;;;;;;;10.77;5.93;;;0.80;99.90;;;;;;2112862;28;20714;-62
2023/04/10 00:16:31;;;;;;;9.00;5.50;;;0.80;99.90;;;;;;2115052;28;20285;-62
2023/04/10 00:17:36;;;;;;;8.57;5.40;;;0.80;99.90;;;;;;2114978;28;20242;-62
2023/04/10 00:18:42;;;;;;;10.15;5.78;;;0.80;99.90;;;;;;2115198;28;20182;-61
2023/04/10 00:19:47;;;;;;;10.98;5.47;;;0.90;99.90;;;;;;2115166;28;20194;-63
2023/04/10 00:20:52;;;;;;;10.77;5.95;;;0.90;99.90;;;;;;2111237;28;20209;-62
2023/04/10 00:21:58;;;;;;;11.48;5.68;;;0.90;99.90;;;;;;2114163;28;20195;-62
2023/04/10 00:23:00;;;;;;;11.77;5.47;;;1.00;99.90;;;;;;2114926;28;20193;-60
2023/04/10 00:24:04;;;;;;;9.90;5.80;;;1.00;99.90;;;;;;2111265;28;20198;-62
2023/04/10 00:25:09;;;;;;;10.70;5.38;;;1.10;99.90;;;;;;2114935;28;20609;-63
2023/04/10 00:26:15;;;;;;;8.75;4.80;;;1.10;99.90;;;;;;2114829;28;20194;-62
2023/04/10 00:27:21;;;;;;;8.20;5.03;;;1.10;99.90;;;;;;2115106;28;20178;-61
2023/04/10 00:28:26;;;;;;;6.78;4.50;;;1.00;99.90;;;;;;2114611;28;20312;-61
2023/04/10 00:29:32;;;;;;;11.55;5.75;;;1.00;99.90;;;;;;2111664;28;20235;-62
2023/04/10 00:30:37;;;;;;;9.48;5.30;;;1.10;99.90;;;;;;2114762;28;20190;-61
2023/04/10 00:31:43;;;;;;;8.73;5.47;;;1.10;99.90;;;;;;2114248;28;20211;-62
2023/04/10 00:32:48;;;;;;;9.95;5.03;;;1.10;99.90;;;;;;2105865;28;20214;-62
2023/04/10 00:33:53;;;;;;;8.35;5.05;;;1.10;99.90;;;;;;2107268;28;20246;-63
2023/04/10 00:34:59;;;;;;;8.45;5.28;;;1.00;99.90;;;;;;2111557;28;20239;-62
2023/04/10 00:36:05;;;;;;;9.75;5.65;;;1.10;99.90;;;;;;2114633;28;20192;-63
2023/04/10 00:37:10;;;;;;;13.02;6.57;;;1.00;99.90;;;;;;2114603;28;20186;-62
2023/04/10 00:38:15;;;;;;;11.90;5.22;;;1.10;99.90;;;;;;2114702;28;20193;-63
2023/04/10 00:39:21;;;;;;;9.45;5.38;;;1.10;99.90;;;;;;2114799;28;20194;-62
2023/04/10 00:40:29;;;;;;;11.52;6.07;;;1.10;99.90;;;;;;2114749;28;20247;-62
2023/04/10 00:41:34;;;;;;;9.40;5.50;;;1.10;99.90;;;;;;2114163;28;20640;-60
2023/04/10 00:42:39;;;;;;;9.57;5.75;;;1.00;99.90;;;;;;2111347;28;20195;-62
2023/04/10 00:43:45;;;;;;;13.15;6.07;;;1.00;99.90;;;;;;2114665;28;20237;-62
2023/04/10 00:44:50;;;;;;;9.90;5.50;;;1.10;99.90;;;;;;2114210;28;20201;-61
2023/04/10 00:45:56;;;;;;;9.80;5.28;;;1.10;99.90;;;;;;2114556;28;20675;-62
2023/04/10 00:47:03;;;;;;;10.82;5.32;;;1.10;99.90;;;;;;2114521;28;20182;-61
2023/04/10 00:48:05;;;;;;;10.45;6.00;;;1.10;99.90;;;;;;2111217;28;20281;-62
2023/04/10 00:49:09;;;;;;;9.73;5.85;;;1.00;99.90;;;;;;2114560;28;20239;-62
2023/04/10 00:50:15;;;;;;;8.23;4.97;;;0.90;99.90;;;;;;2105626;28;20356;-60
2023/04/10 00:51:21;;;;;;;13.05;6.43;;;0.90;99.90;;;;;;2106052;28;20218;-62
2023/04/10 00:52:27;;;;;;;10.27;5.68;;;0.90;99.90;;;;;;2114812;28;20186;-62
2023/04/10 00:53:32;;;;;;;10.00;5.63;;;1.00;99.90;;;;;;2110565;28;20189;-60
2023/04/10 00:54:39;;;;;;;9.68;5.30;;;1.00;99.90;;;;;;2102645;28;20281;-62
2023/04/10 00:55:44;;;;;;;7.93;5.20;;;0.90;99.90;;;;;;2098843;28;20263;-62
2023/04/10 00:56:49;;;;;;;8.82;5.25;;;0.90;99.90;;;;;;2098623;28;20214;-62
2023/04/10 00:57:55;;;;;;;8.43;5.57;;;0.90;99.90;;;;;;2103152;28;20179;-62
2023/04/10 00:59:01;;;;;;;8.00;5.43;;;1.00;99.90;;;;;;2111583;28;20190;-62
2023/04/10 01:00:05;;;;;;;8.45;5.53;;;1.10;99.90;;;;;;2105499;28;20187;-62
2023/04/10 01:01:10;;;;;;;9.98;5.00;;;1.00;99.90;;;;;;2106279;28;20195;-62
2023/04/10 01:02:15;;;;;;;10.50;4.80;;;0.90;99.90;;;;;;2114350;28;20574;-62
2023/04/10 01:03:22;;;;;;;8.88;5.03;;;0.80;99.90;;;;;;2114280;28;20201;-62
2023/04/10 01:04:29;;;;;;;8.50;4.70;;;0.70;99.90;;;;;;2114599;28;20308;-62
2023/04/10 01:05:46;;;;;;;7.78;4.90;;;0.70;99.90;;;;;;2113637;28;20614;-62
2023/04/10 01:07:03;;;;;;;7.85;4.75;;;0.70;99.90;;;;;;2111836;28;20269;-62
2023/04/10 01:09:01;;;;;;;10.10;5.25;;;0.70;99.90;;;;;;2111501;28;20222;-62
2023/04/10 01:10:16;;;;;;;9.02;4.63;;;0.70;99.90;;;;;;2079857;28;20573;-61
2023/04/10 01:11:23;;;;;;;11.65;4.85;;;0.70;99.90;;;;;;2111779;28;20186;-62
2023/04/10 01:12:41;;;;;;;8.93;5.05;;;0.70;99.90;;;;;;2114545;28;20178;-62
2023/04/10 01:14:04;;;;;;;10.40;4.95;;;0.60;99.90;;;;;;2114363;28;20407;-62
2023/04/10 01:15:21;;;;;;;7.80;4.85;;;0.60;99.90;;;;;;2122257;27;20205;-62
2023/04/10 01:16:35;;;;;;;9.60;5.65;;;0.60;99.90;;;;;;2110547;28;20271;-62
2023/04/10 01:18:18;;;;;;;10.48;5.75;;;0.60;99.90;;;;;;2099435;28;20232;-61
2023/04/10 01:20:12;;;;;;;9.15;5.45;;;0.60;99.90;;;;;;2109641;28;20194;-62
2023/04/10 01:21:18;;;;;;;7.65;4.90;;;0.60;99.90;;;;;;2079300;28;20746;-62
2023/04/10 01:22:57;;;;;;;9.63;5.18;;;0.60;99.90;;;;;;2087963;28;20242;-61
2023/04/10 01:24:41;;;;;;;11.63;5.80;;;0.60;99.90;;;;;;2071187;28;20290;-62
2023/04/10 01:25:58;;;;;;;10.25;5.18;;;0.60;99.90;;;;;;2092792;28;20203;-60
2023/04/10 01:28:06;;;;;;;7.50;4.70;;;0.60;99.90;;;;;;2111050;28;20201;-62
2023/04/10 01:29:14;;;;;;;9.30;5.25;;;0.60;99.90;;;;;;2079108;28;20227;-61
2023/04/10 01:30:21;;;;;;;8.68;4.72;;;0.60;99.90;;;;;;2087672;28;20781;-62
2023/04/10 01:31:52;;;;;;;10.98;5.80;;;0.60;99.90;;;;;;2093849;28;20685;-62
2023/04/10 01:32:59;;;;;;;9.48;5.10;;;0.60;99.90;;;;;;2112084;27;20182;-61
2023/04/10 01:34:15;;;;;;;8.70;5.80;;;0.70;99.90;;;;;;2112090;28;20277;-61
2023/04/10 01:35:22;;;;;;;9.68;5.53;;;0.70;99.90;;;;;;2099743;28;20216;-62
2023/04/10 01:36:36;;;;;;;10.30;5.75;;;0.70;99.90;;;;;;2106983;28;20182;-62
2023/04/10 01:37:46;;;;;;;9.77;4.97;;;0.60;99.90;;;;;;2102200;28;20262;-62
2023/04/10 01:38:54;;;;;;;9.18;5.10;;;0.60;99.90;;;;;;2099012;28;20338;-62
2023/04/10 01:40:08;;;;;;;10.45;5.57;;;0.60;99.90;;;;;;2115542;27;20572;-62
2023/04/10 01:41:10;;;;;;;10.65;5.45;;;0.60;99.90;;;;;;2117334;28;20193;-62
2023/04/10 01:42:18;;;;;;;9.75;5.43;;;0.70;99.90;;;;;;2104712;28;20277;-62
2023/04/10 01:43:25;;;;;;;8.50;5.10;;;0.70;99.90;;;;;;2104173;28;20183;-62
2023/04/10 01:44:33;;;;;;;9.63;5.05;;;0.70;99.90;;;;;;2105398;28;20175;-62
2023/04/10 01:45:42;;;;;;;8.07;4.70;;;0.60;99.90;;;;;;2103823;28;20312;-61
2023/04/10 01:46:48;;;;;;;8.52;4.82;;;0.70;99.90;;;;;;2100974;28;20277;-63
2023/04/10 01:47:54;;;;;;;7.72;4.47;;;0.70;99.90;;;;;;2094748;28;20179;-62
2023/04/10 01:49:01;;;;;;;8.57;5.00;;;0.70;99.90;;;;;;2102692;28;20193;-62
2023/04/10 01:50:06;;;;;;;9.23;5.68;;;0.70;99.90;;;;;;2100974;28;20273;-62
2023/04/10 01:51:11;;;;;;;8.65;5.20;;;0.70;99.90;;;;;;2109612;28;20585;-63
2023/04/10 01:52:16;;;;;;;11.65;5.57;;;0.60;99.90;;;;;;2119897;28;20193;-62
2023/04/10 01:53:23;;;;;;;9.13;5.70;;;0.60;99.90;;;;;;2113594;28;20271;-62
2023/04/10 01:54:27;;;;;;;7.63;4.85;;;0.60;99.90;;;;;;2122280;28;20185;-63
2023/04/10 01:55:33;;;;;;;7.63;4.70;;;0.60;99.90;;;;;;2108768;28;20206;-63
2023/04/10 01:56:38;;;;;;;9.35;5.63;;;0.50;99.90;;;;;;2102820;28;20178;-62
2023/04/10 01:57:45;;;;;;;8.38;4.95;;;0.50;99.90;;;;;;2114199;28;20182;-63
2023/04/10 01:58:49;;;;;;;9.52;5.32;;;0.50;99.90;;;;;;2104869;28;20187;-63
2023/04/10 01:59:55;;;;;;;9.10;5.35;;;0.50;99.90;;;;;;2104586;28;20210;-63
2023/04/10 02:01:00;;;;;;;11.00;5.03;;;0.50;99.90;;;;;;2113076;28;20182;-62
2023/04/10 02:02:06;;;;;;;11.50;5.20;;;0.50;99.90;;;;;;2113246;28;20185;-62
2023/04/10 02:03:10;;;;;;;9.13;5.43;;;0.60;99.90;;;;;;2113883;28;20669;-61
2023/04/10 02:04:15;;;;;;;10.20;5.25;;;0.50;99.90;;;;;;2114307;28;20615;-63
2023/04/10 02:05:23;;;;;;;8.55;4.57;;;0.50;99.90;;;;;;2114200;28;20198;-63
2023/04/10 02:06:45;;;;;;;7.85;5.05;;;0.50;99.90;;;;;;2118510;28;20202;-62
2023/04/10 02:08:23;;;;;;;7.13;4.35;;;0.50;99.90;;;;;;2115854;28;20189;-63
2023/04/10 02:09:47;;;;;;;9.15;5.32;;;0.60;99.90;;;;;;2104917;28;20171;-61
2023/04/10 02:11:10;;;;;;;8.25;4.38;;;0.60;99.90;;;;;;2105939;28;20266;-65
2023/04/10 02:12:22;;;;;;;8.65;4.90;;;0.50;99.90;;;;;;2104790;28;20214;-63
2023/04/10 02:13:29;;;;;;;9.10;5.18;;;0.50;99.90;;;;;;2105450;28;20209;-62
2023/04/10 02:14:38;;;;;;;8.98;5.00;;;0.60;99.90;;;;;;2110767;28;20183;-63
2023/04/10 02:15:42;;;;;;;8.48;4.68;;;0.50;99.90;;;;;;2109976;28;20655;-61
2023/04/10 02:16:45;;;;;;;7.43;4.40;;;0.60;99.90;;;;;;2109846;28;20207;-62
2023/04/10 02:17:53;;;;;;;7.32;4.22;;;0.50;99.90;;;;;;2121432;28;20214;-63
2023/04/10 02:19:01;;;;;;;7.63;4.32;;;0.50;99.90;;;;;;2106228;28;20189;-63
2023/04/10 02:20:07;;;;;;;9.02;5.15;;;0.50;99.90;;;;;;2111098;27;20193;-63
2023/04/10 02:21:10;;;;;;;10.73;4.63;;;0.50;99.90;;;;;;2118996;28;20201;-62
2023/04/10 02:22:16;;;;;;;9.18;4.40;;;0.50;99.90;;;;;;2100918;28;20277;-66
2023/04/10 02:23:22;;;;;;;9.23;5.22;;;0.50;99.90;;;;;;2114853;28;20270;-63
2023/04/10 02:24:27;;;;;;;8.48;4.75;;;0.50;99.90;;;;;;2120830;28;20230;-62
2023/04/10 02:25:34;;;;;;;7.40;5.00;;;0.50;99.90;;;;;;2114019;28;20198;-62
2023/04/10 02:26:52;;;;;;;8.30;4.75;;;0.50;99.90;;;;;;2105308;28;20182;-63
2023/04/10 02:27:55;;;;;;;8.85;5.20;;;0.40;99.90;;;;;;2094971;28;20178;-63
2023/04/10 02:29:01;;;;;;;8.07;4.53;;;0.40;99.90;;;;;;2102440;28;20199;-64
2023/04/10 02:30:07;;;;;;;7.30;4.53;;;0.40;99.90;;;;;;2114173;28;20194;-62
2023/04/10 02:31:09;;;;;;;7.80;4.75;;;0.50;99.90;;;;;;2114050;28;20662;-62
2023/04/10 02:32:16;;;;;;;7.55;4.78;;;0.50;99.90;;;;;;2110268;28;20235;-62
2023/04/10 02:33:21;;;;;;;7.60;4.03;;;0.50;99.90;;;;;;2114267;28;20175;-63
2023/04/10 02:34:27;;;;;;;8.15;5.00;;;0.50;99.90;;;;;;2114034;28;20182;-63
2023/04/10 02:35:33;;;;;;;6.63;4.07;;;0.50;99.90;;;;;;2121063;28;20201;-63
2023/04/10 02:36:38;;;;;;;7.55;4.25;;;0.50;99.90;;;;;;2111773;28;20201;-63
2023/04/10 02:37:46;;;;;;;8.88;5.10;;;0.50;99.90;;;;;;2102603;28;20675;-61
2023/04/10 02:38:51;;;;;;;8.52;4.72;;;0.50;99.90;;;;;;2114229;28;20197;-63
2023/04/10 02:39:57;;;;;;;8.23;4.75;;;0.50;99.90;;;;;;2110804;28;20205;-63
2023/04/10 02:41:03;;;;;;;7.00;4.45;;;0.50;99.90;;;;;;2113931;28;20656;-62
2023/04/10 02:42:04;;;;;;;8.02;4.13;;;0.50;99.90;;;;;;2113399;28;20178;-63
2023/04/10 02:43:09;;;;;;;12.73;5.13;;;0.50;99.90;;;;;;2110799;28;20235;-63
2023/04/10 02:44:15;;;;;;;8.55;4.93;;;0.50;99.90;;;;;;2113980;28;20178;-63
2023/04/10 02:45:20;;;;;;;8.45;4.18;;;0.50;99.90;;;;;;2114127;28;20293;-63
2023/04/10 02:46:26;;;;;;;9.00;5.10;;;0.50;99.90;;;;;;2113781;28;20183;-63
2023/04/10 02:47:31;;;;;;;6.70;4.20;;;0.50;99.90;;;;;;2114054;28;20175;-62
2023/04/10 02:48:37;;;;;;;9.27;4.88;;;0.50;99.90;;;;;;2110856;28;20225;-63
2023/04/10 02:49:43;;;;;;;8.90;5.03;;;0.50;99.90;;;;;;2113942;28;20190;-63
2023/04/10 02:50:48;;;;;;;9.02;5.40;;;0.40;99.90;;;;;;2110180;28;20658;-63
2023/04/10 02:51:54;;;;;;;7.65;4.80;;;0.40;99.90;;;;;;2113599;28;20201;-63
2023/04/10 02:53:00;;;;;;;8.02;4.72;;;0.40;99.90;;;;;;2114157;28;20191;-62
2023/04/10 02:54:04;;;;;;;7.50;4.43;;;0.50;99.90;;;;;;2114262;28;20269;-62
2023/04/10 02:55:10;;;;;;;10.07;4.90;;;0.50;99.90;;;;;;2114077;28;20210;-63
2023/04/10 02:56:15;;;;;;;8.20;4.45;;;0.50;99.90;;;;;;2110538;28;20193;-63
2023/04/10 02:57:21;;;;;;;7.78;4.85;;;0.40;99.90;;;;;;2113384;28;20196;-63
2023/04/10 02:58:29;;;;;;;8.18;4.70;;;0.40;99.90;;;;;;2113815;28;20182;-63
2023/04/10 02:59:32;;;;;;;11.05;5.80;;;0.40;99.90;;;;;;2115519;28;20178;-62
2023/04/10 03:00:38;;;;;;;9.85;5.20;;;0.40;99.90;;;;;;2115831;28;20190;-62
2023/04/10 03:01:45;;;;;;;7.55;4.68;;;0.40;99.90;;;;;;2111639;28;20639;-62
2023/04/10 03:02:50;;;;;;;8.63;5.63;;;0.40;99.90;;;;;;2115693;28;20192;-63
2023/04/10 03:03:56;;;;;;;8.70;4.70;;;0.40;99.90;;;;;;2111848;28;20214;-63
2023/04/10 03:05:02;;;;;;;8.50;5.50;;;0.40;99.90;;;;;;2115635;28;20252;-63
2023/04/10 03:06:05;;;;;;;9.07;5.43;;;0.40;99.90;;;;;;2115646;28;20192;-62
2023/04/10 03:07:09;;;;;;;9.88;5.18;;;0.40;99.90;;;;;;2112135;28;20174;-62
2023/04/10 03:08:16;;;;;;;7.35;4.57;;;0.40;99.90;;;;;;2115730;28;20182;-63
2023/04/10 03:09:21;;;;;;;8.07;5.32;;;0.40;99.90;;;;;;2111860;28;20193;-63
2023/04/10 03:10:28;;;;;;;6.78;4.50;;;0.40;99.90;;;;;;2115779;28;20193;-61
2023/04/10 03:11:34;;;;;;;8.90;5.07;;;0.40;99.90;;;;;;2114869;28;20206;-63
2023/04/10 03:12:39;;;;;;;6.82;3.80;;;0.40;99.90;;;;;;2115700;28;20580;-62
2023/04/10 03:13:44;;;;;;;8.00;4.72;;;0.30;99.90;;;;;;2115328;28;20641;-63
2023/04/10 03:14:50;;;;;;;7.22;4.15;;;0.40;99.90;;;;;;2111862;28;20210;-63
2023/04/10 03:15:55;;;;;;;9.30;4.72;;;0.30;99.90;;;;;;2114773;28;20214;-63
2023/04/10 03:17:00;;;;;;;9.23;4.50;;;0.40;99.90;;;;;;2123241;27;20189;-63
2023/04/10 03:18:04;;;;;;;6.70;4.05;;;0.30;99.90;;;;;;2122558;27;20628;-64
2023/04/10 03:19:11;;;;;;;7.18;4.43;;;0.30;99.90;;;;;;2115315;28;20190;-64
2023/04/10 03:20:17;;;;;;;7.72;4.32;;;0.30;99.90;;;;;;2111776;28;20202;-63
2023/04/10 03:21:22;;;;;;;7.05;4.50;;;0.30;99.90;;;;;;2114628;28;20205;-62
2023/04/10 03:22:30;;;;;;;6.93;4.43;;;0.30;99.90;;;;;;2115327;28;20193;-63
2023/04/10 03:23:36;;;;;;;7.00;4.03;;;0.30;99.90;;;;;;2115209;28;20194;-63
2023/04/10 03:24:41;;;;;;;7.97;4.78;;;0.30;99.90;;;;;;2115237;28;20600;-63
2023/04/10 03:25:52;;;;;;;7.45;4.45;;;0.30;99.90;;;;;;2115500;28;20194;-65
2023/04/10 03:26:58;;;;;;;10.25;5.15;;;0.40;99.90;;;;;;2115336;28;20193;-62
2023/04/10 03:28:04;;;;;;;8.85;5.35;;;0.40;99.90;;;;;;2114944;28;20181;-63
2023/04/10 03:29:09;;;;;;;6.90;4.82;;;0.40;99.90;;;;;;2115381;28;20182;-63
2023/04/10 03:30:16;;;;;;;8.93;4.82;;;0.40;99.90;;;;;;2111702;28;20178;-63
2023/04/10 03:31:20;;;;;;;7.65;4.82;;;0.30;99.90;;;;;;2114489;28;20223;-63
2023/04/10 03:32:27;;;;;;;8.80;4.32;;;0.40;99.90;;;;;;2115234;28;20629;-63
2023/04/10 03:33:31;;;;;;;8.40;4.85;;;0.40;99.90;;;;;;2115237;28;20205;-63
2023/04/10 03:34:36;;;;;;;8.68;4.35;;;0.30;99.90;;;;;;2114777;28;20252;-63
2023/04/10 03:35:42;;;;;;;8.15;4.65;;;0.40;99.90;;;;;;2114268;28;20186;-61
2023/04/10 03:36:47;;;;;;;7.60;4.15;;;0.40;99.90;;;;;;2114728;28;20198;-61
2023/04/10 03:37:53;;;;;;;7.35;4.38;;;0.40;99.90;;;;;;2115547;28;20201;-63
2023/04/10 03:38:59;;;;;;;9.75;5.03;;;0.40;99.90;;;;;;2115259;28;20197;-63
2023/04/10 03:40:08;;;;;;;8.55;4.63;;;0.40;99.90;;;;;;2115059;28;20232;-63
2023/04/10 03:41:09;;;;;;;8.18;4.30;;;0.30;99.90;;;;;;2115037;28;20635;-63
2023/04/10 03:42:14;;;;;;;7.47;4.15;;;0.40;99.90;;;;;;2114787;28;20716;-63
2023/04/10 03:43:15;;;;;;;8.10;4.50;;;0.30;99.90;;;;;;2114981;28;20520;-63
2023/04/10 03:44:21;;;;;;;5.75;3.75;;;0.30;99.90;;;;;;2115286;28;20243;-63
2023/04/10 03:45:27;;;;;;;8.88;4.60;;;0.30;99.90;;;;;;2114987;28;20241;-63
2023/04/10 03:46:33;;;;;;;7.93;4.72;;;0.30;99.90;;;;;;2111669;28;20280;-60
2023/04/10 03:47:38;;;;;;;7.63;4.75;;;0.20;99.90;;;;;;2114961;28;20183;-63
2023/04/10 03:48:44;;;;;;;8.05;3.90;;;0.20;99.90;;;;;;2115168;28;20201;-63
2023/04/10 03:49:49;;;;;;;10.75;5.18;;;0.30;99.90;;;;;;2115235;28;20709;-63
2023/04/10 03:50:55;;;;;;;6.20;4.35;;;0.30;99.90;;;;;;2114918;28;20265;-63
2023/04/10 03:52:00;;;;;;;7.85;4.82;;;0.30;99.90;;;;;;2119154;27;20273;-65
2023/04/10 03:53:05;;;;;;;7.93;4.45;;;0.20;99.90;;;;;;2122377;27;20192;-63
2023/04/10 03:54:09;;;;;;;7.32;4.57;;;0.20;99.90;;;;;;2115271;28;20267;-63
2023/04/10 03:55:18;;;;;;;8.18;4.68;;;0.20;99.90;;;;;;2115048;28;20228;-63
2023/04/10 03:56:23;;;;;;;6.65;4.35;;;0.20;99.90;;;;;;2115154;28;20220;-63
2023/04/10 03:57:29;;;;;;;8.20;4.47;;;0.20;99.90;;;;;;2117805;28;20189;-64
2023/04/10 03:58:34;;;;;;;8.65;4.57;;;0.20;99.90;;;;;;2118431;28;20182;-63
2023/04/10 03:59:40;;;;;;;11.15;5.80;;;0.20;99.90;;;;;;2112452;28;20190;-62
2023/04/10 04:00:45;;;;;;;8.38;5.38;;;0.20;99.90;;;;;;2115186;28;20194;-61
2023/04/10 04:01:52;;;;;;;7.78;4.82;;;0.20;99.90;;;;;;2114275;28;20239;-61
2023/04/10 04:02:58;;;;;;;8.80;5.18;;;0.20;99.90;;;;;;2115123;28;20194;-63
2023/04/10 04:04:04;;;;;;;7.60;4.78;;;0.20;99.90;;;;;;2114826;28;20202;-63
2023/04/10 04:05:09;;;;;;;8.65;5.15;;;0.20;99.90;;;;;;2103161;28;20214;-63
2023/04/10 04:06:15;;;;;;;9.63;5.60;;;0.20;99.90;;;;;;2107427;28;20175;-62
2023/04/10 04:07:20;;;;;;;8.15;5.28;;;0.20;99.90;;;;;;2111452;28;20182;-62
2023/04/10 04:08:26;;;;;;;12.80;6.40;;;0.20;99.90;;;;;;2115139;28;20183;-62
2023/04/10 04:09:31;;;;;;;8.05;5.53;;;0.20;99.90;;;;;;2114671;28;20178;-62
2023/04/10 04:10:37;;;;;;;7.80;5.25;;;0.20;99.90;;;;;;2115186;28;20190;-62
2023/04/10 04:11:42;;;;;;;8.98;4.93;;;0.20;99.90;;;;;;2114625;28;20193;-62
2023/04/10 04:12:48;;;;;;;8.18;4.70;;;0.20;99.90;;;;;;2111666;28;20210;-62
2023/04/10 04:13:53;;;;;;;9.23;5.00;;;0.30;99.90;;;;;;2114808;28;20186;-61
2023/04/10 04:14:59;;;;;;;7.82;4.38;;;0.30;99.90;;;;;;2114995;28;20217;-63
2023/04/10 04:16:05;;;;;;;7.93;4.57;;;0.30;99.90;;;;;;2114914;28;20190;-62
2023/04/10 04:17:10;;;;;;;8.85;4.60;;;0.30;99.90;;;;;;2115072;28;20197;-62
2023/04/10 04:18:15;;;;;;;9.57;4.68;;;0.30;99.90;;;;;;2119108;27;20193;-63
2023/04/10 04:19:20;;;;;;;8.93;4.88;;;0.30;99.90;;;;;;2119044;27;20461;-62
2023/04/10 04:20:26;;;;;;;10.80;5.38;;;0.30;99.90;;;;;;2110599;28;20608;-62
2023/04/10 04:21:31;;;;;;;7.95;5.20;;;0.30;99.90;;;;;;2113507;28;20178;-60
2023/04/10 04:22:37;;;;;;;8.93;4.82;;;0.40;99.90;;;;;;2114517;28;20197;-62
2023/04/10 04:23:42;;;;;;;7.88;5.10;;;0.30;99.90;;;;;;2112578;28;20206;-63
2023/04/10 04:24:48;;;;;;;7.88;4.40;;;0.30;99.90;;;;;;2114588;28;20186;-62
2023/04/10 04:25:55;;;;;;;7.35;4.72;;;0.20;99.90;;;;;;2114857;28;20267;-62
2023/04/10 04:27:01;;;;;;;6.30;3.83;;;0.20;99.90;;;;;;2114591;28;20178;-61
2023/04/10 04:28:04;;;;;;;8.70;4.15;;;0.20;99.90;;;;;;2114929;28;20186;-62
2023/04/10 04:29:09;;;;;;;8.77;5.00;;;0.20;99.90;;;;;;2111505;28;20178;-63
2023/04/10 04:30:15;;;;;;;8.15;4.68;;;0.30;99.90;;;;;;2115093;28;20186;-63
2023/04/10 04:31:20;;;;;;;9.70;5.05;;;0.20;99.90;;;;;;2114250;28;20196;-63
2023/04/10 04:32:26;;;;;;;8.93;4.82;;;0.20;99.90;;;;;;2115200;28;20185;-64
2023/04/10 04:33:31;;;;;;;8.50;4.47;;;0.20;99.90;;;;;;2115114;28;20174;-62
2023/04/10 04:34:37;;;;;;;6.85;4.00;;;0.10;99.90;;;;;;2114628;28;20189;-62
2023/04/10 04:35:42;;;;;;;8.27;4.68;;;0.00;99.90;;;;;;2115444;28;20244;-63
2023/04/10 04:36:48;;;;;;;7.35;4.78;;;0.10;99.90;;;;;;2111158;28;20182;-62
2023/04/10 04:37:53;;;;;;;6.47;4.20;;;0.10;99.90;;;;;;2114720;28;20235;-62
2023/04/10 04:38:59;;;;;;;8.32;5.05;;;0.10;99.90;;;;;;2114650;28;20192;-63
2023/04/10 04:40:05;;;;;;;7.07;4.60;;;0.10;99.90;;;;;;2114940;28;20203;-62
2023/04/10 04:41:09;;;;;;;6.97;4.28;;;0.10;99.90;;;;;;2114483;28;20214;-62
2023/04/10 04:42:15;;;;;;;7.72;4.13;;;0.00;99.90;;;;;;2110734;28;20238;-66
2023/04/10 04:43:20;;;;;;;9.57;4.95;;;0.00;99.90;;;;;;2114362;28;20707;-66
2023/04/10 04:44:26;;;;;;;9.57;5.18;;;-0.10;99.90;;;;;;2114587;28;20514;-63
2023/04/10 04:45:31;;;;;;;9.00;4.65;;;0.00;99.90;;;;;;2114682;28;20197;-63
2023/04/10 04:46:36;;;;;;;8.82;4.55;;;0.00;99.90;;;;;;2114711;28;20187;-62
2023/04/10 04:47:42;;;;;;;7.85;4.68;;;0.00;99.90;;;;;;2111222;28;20178;-61
2023/04/10 04:48:47;;;;;;;8.65;5.00;;;0.00;99.90;;;;;;2114206;28;20769;-62
2023/04/10 04:49:53;;;;;;;8.38;4.55;;;-0.10;99.90;;;;;;2114402;28;20612;-63
2023/04/10 04:50:58;;;;;;;9.05;4.50;;;0.00;99.90;;;;;;2114554;28;20197;-62
2023/04/10 04:52:04;;;;;;;8.75;4.53;;;0.00;99.90;;;;;;2121788;27;20195;-62
2023/04/10 04:53:09;;;;;;;8.40;4.72;;;-0.10;99.90;;;;;;2117923;27;20177;-62
2023/04/10 04:54:15;;;;;;;7.75;4.57;;;0.00;99.90;;;;;;2114564;28;20731;-62
2023/04/10 04:55:20;;;;;;;7.28;4.43;;;0.00;99.90;;;;;;2114574;28;20278;-63
2023/04/10 04:56:26;;;;;;;5.60;3.83;;;0.00;99.90;;;;;;2114784;28;20243;-62
2023/04/10 04:57:31;;;;;;;7.88;4.82;;;-0.10;99.90;;;;;;2114824;28;20182;-62
2023/04/10 04:58:37;;;;;;;8.25;4.60;;;-0.10;99.90;;;;;;2114746;28;20186;-62
2023/04/10 04:59:42;;;;;;;8.07;4.70;;;-0.10;99.90;;;;;;2114551;28;20182;-62
2023/04/10 05:00:48;;;;;;;9.10;5.88;;;0.00;99.90;;;;;;2110395;28;20189;-63
2023/04/10 05:01:53;;;;;;;7.40;4.72;;;0.00;99.90;;;;;;2113316;28;20185;-63
2023/04/10 05:02:59;;;;;;;6.78;4.65;;;0.00;99.90;;;;;;2122423;27;20186;-63
2023/04/10 05:04:04;;;;;;;9.30;5.32;;;0.10;99.90;;;;;;2121439;27;20217;-60
2023/04/10 05:05:09;;;;;;;8.18;5.32;;;0.10;99.90;;;;;;2114417;28;20562;-62
2023/04/10 05:06:16;;;;;;;9.23;5.10;;;0.10;99.90;;;;;;2110659;28;20194;-63
2023/04/10 05:07:22;;;;;;;9.18;5.38;;;0.00;99.90;;;;;;2114423;28;20186;-63
2023/04/10 05:08:27;;;;;;;9.32;5.15;;;0.10;99.90;;;;;;2114223;28;20179;-63
2023/04/10 05:09:33;;;;;;;8.98;5.38;;;0.10;99.90;;;;;;2114389;28;20174;-61
2023/04/10 05:10:39;;;;;;;9.93;5.55;;;0.00;99.90;;;;;;2114369;28;20209;-63
2023/04/10 05:11:44;;;;;;;7.20;4.60;;;0.10;99.90;;;;;;2110645;28;20239;-63
2023/04/10 05:12:49;;;;;;;7.20;4.82;;;0.10;99.90;;;;;;2114294;28;20182;-63
2023/04/10 05:13:55;;;;;;;8.05;5.35;;;0.20;99.90;;;;;;2110522;28;20217;-63
2023/04/10 05:15:02;;;;;;;8.65;4.82;;;0.20;99.90;;;;;;2113974;28;20761;-62
2023/04/10 05:16:05;;;;;;;8.68;5.07;;;0.30;99.90;;;;;;2114349;28;20174;-63
2023/04/10 05:17:10;;;;;;;9.15;5.47;;;0.30;99.90;;;;;;2111025;28;20254;-63
2023/04/10 05:18:18;;;;;;;8.18;5.30;;;0.30;99.90;;;;;;2114436;28;20196;-63
2023/04/10 05:19:24;;;;;;;8.98;5.30;;;0.30;99.90;;;;;;2110990;28;20179;-63
2023/04/10 05:20:30;;;;;;;9.65;5.38;;;0.40;99.90;;;;;;2114154;28;20193;-63
2023/04/10 05:21:36;;;;;;;8.90;5.28;;;0.40;99.90;;;;;;2112789;28;20712;-63
2023/04/10 05:22:42;;;;;;;8.02;5.00;;;1.30;99.90;;;;;;2114166;28;20201;-63
2023/04/10 05:23:47;;;;;;;7.43;4.97;;;0.30;99.90;;;;;;2114195;28;20209;-63
2023/04/10 05:24:54;;;;;;;7.03;4.55;;;0.30;99.90;;;;;;2111039;28;20239;-61
2023/04/10 05:25:59;;;;;;;9.00;4.78;;;0.30;99.90;;;;;;2114293;28;20178;-61
2023/04/10 05:27:04;;;;;;;10.13;5.60;;;0.30;99.90;;;;;;2110469;28;20188;-61
2023/04/10 05:28:09;;;;;;;8.40;5.00;;;0.30;99.90;;;;;;2114330;28;20265;-63
2023/04/10 05:29:15;;;;;;;8.23;4.78;;;0.40;99.90;;;;;;2114114;28;20182;-63
2023/04/10 05:30:20;;;;;;;8.05;4.40;;;0.50;99.90;;;;;;2114387;28;20181;-62
2023/04/10 05:31:26;;;;;;;8.27;4.40;;;0.50;99.90;;;;;;2113362;28;20670;-62
2023/04/10 05:32:31;;;;;;;7.63;4.40;;;0.60;99.90;;;;;;2110854;28;20643;-62
2023/04/10 05:33:37;;;;;;;8.40;4.20;;;0.70;99.90;;;;;;2114119;28;20566;-61
2023/04/10 05:34:45;;;;;;;7.90;4.35;;;0.60;99.90;;;;;;2114278;28;20198;-62
2023/04/10 05:35:48;;;;;;;8.45;4.80;;;0.70;99.90;;;;;;2113983;28;20182;-62
2023/04/10 05:36:53;;;;;;;8.60;4.20;;;0.70;99.90;;;;;;2114194;28;20182;-62
2023/04/10 05:37:59;;;;;;;6.65;4.43;;;0.80;99.90;;;;;;2110639;28;20686;-63
2023/04/10 05:39:05;;;;;;;7.30;4.07;;;0.70;99.90;;;;;;2114295;28;20201;-63
2023/04/10 05:40:09;;;;;;;9.00;5.38;;;0.70;99.90;;;;;;2114299;28;20182;-62
2023/04/10 05:41:15;;;;;;;7.63;4.30;;;0.80;99.90;;;;;;2113756;28;20312;-61
2023/04/10 05:42:21;;;;;;;8.05;4.88;;;0.70;99.90;;;;;;2114216;28;20597;-65
2023/04/10 05:43:26;;;;;;;7.13;4.20;;;0.70;99.90;;;;;;2110783;28;20182;-62
2023/04/10 05:44:31;;;;;;;8.00;4.50;;;0.80;99.90;;;;;;2113930;28;20178;-62
2023/04/10 05:45:37;;;;;;;7.30;4.63;;;0.80;99.90;;;;;;2113923;28;20202;-62
2023/04/10 05:46:42;;;;;;;7.05;4.57;;;0.90;99.90;;;;;;2114216;28;20193;-62
2023/04/10 05:47:48;;;;;;;9.25;4.57;;;0.90;99.90;;;;;;2113931;28;20178;-62
2023/04/10 05:48:53;;;;;;;6.78;4.25;;;0.80;99.90;;;;;;2114174;28;20191;-62
2023/04/10 05:49:59;;;;;;;8.38;4.40;;;0.80;99.90;;;;;;2113966;28;20189;-62
2023/04/10 05:51:05;;;;;;;6.90;4.32;;;0.80;99.90;;;;;;2110350;28;20566;-63
2023/04/10 05:52:09;;;;;;;8.32;4.72;;;0.80;99.90;;;;;;2113465;28;20270;-63
2023/04/10 05:53:18;;;;;;;7.00;4.45;;;0.90;99.90;;;;;;2114190;28;20258;-62